createdAt,value
2023-10-31T00:01:38.122Z,100.00
2023-10-31T00:04:06.652Z,100.00
2023-10-31T00:06:34.654Z,100.00
2023-10-31T00:09:04.110Z,100.00
2023-10-31T00:11:32.094Z,100.00
2023-10-31T00:14:00.126Z,100.00
2023-10-31T00:16:28.260Z,100.00
2023-10-31T00:18:56.303Z,100.00
2023-10-31T00:21:24.299Z,100.00
2023-10-31T00:23:52.277Z,100.00
2023-10-31T00:26:21.833Z,100.00
2023-10-31T00:28:49.866Z,100.00
2023-10-31T00:31:17.945Z,100.00
2023-10-31T00:33:46.017Z,100.00
2023-10-31T00:36:14.201Z,100.00
2023-10-31T00:38:42.173Z,100.00
2023-10-31T00:41:10.292Z,100.00
2023-10-31T00:43:39.700Z,100.00
2023-10-31T00:46:07.865Z,100.00
2023-10-31T00:48:37.646Z,100.00
2023-10-31T00:51:06.059Z,100.00
2023-10-31T00:53:34.584Z,100.00
2023-10-31T00:56:04.231Z,100.00
2023-10-31T00:58:32.286Z,100.00
2023-10-31T01:01:01.752Z,100.00
2023-10-31T01:03:30.142Z,100.00
2023-10-31T01:05:58.318Z,100.00
2023-10-31T01:08:26.332Z,100.00
2023-10-31T01:10:57.294Z,100.00
2023-10-31T01:13:25.308Z,100.00
2023-10-31T01:15:53.391Z,100.00
2023-10-31T01:18:22.764Z,100.00
2023-10-31T01:20:50.997Z,100.00
2023-10-31T01:23:18.943Z,100.00
2023-10-31T01:25:46.932Z,100.00
2023-10-31T01:28:14.950Z,100.00
2023-10-31T01:30:42.922Z,100.00
2023-10-31T01:33:11.059Z,100.00
2023-10-31T01:35:40.490Z,100.00
2023-10-31T01:38:08.523Z,100.00
2023-10-31T01:40:36.620Z,100.00
2023-10-31T01:43:04.609Z,100.00
2023-10-31T01:45:32.589Z,100.00
2023-10-31T01:48:00.937Z,100.00
2023-10-31T01:50:29.939Z,100.00
2023-10-31T01:52:59.394Z,100.00
2023-10-31T01:55:28.639Z,100.00
2023-10-31T01:57:57.061Z,100.00
2023-10-31T02:00:25.060Z,100.00
2023-10-31T02:02:56.105Z,100.00
2023-10-31T02:05:24.091Z,100.00
2023-10-31T02:07:52.221Z,100.00
2023-10-31T02:10:21.709Z,100.00
2023-10-31T02:12:49.726Z,100.00
2023-10-31T02:15:17.721Z,100.00
2023-10-31T02:17:45.838Z,100.00
2023-10-31T02:20:14.148Z,100.00
2023-10-31T02:22:43.826Z,100.00
2023-10-31T02:25:19.233Z,100.00
2023-10-31T02:27:47.469Z,100.00
2023-10-31T02:30:15.736Z,100.00
2023-10-31T02:32:44.023Z,100.00
2023-10-31T02:35:12.469Z,100.00
2023-10-31T02:37:40.572Z,100.00
2023-10-31T02:40:11.438Z,100.00
2023-10-31T02:42:39.415Z,100.00
2023-10-31T02:45:08.508Z,100.00
2023-10-31T02:47:36.528Z,100.00
2023-10-31T02:50:05.015Z,100.00
2023-10-31T02:52:33.226Z,100.00
2023-10-31T02:55:01.235Z,100.00
2023-10-31T02:57:29.655Z,100.00
2023-10-31T02:59:57.585Z,100.00
2023-10-31T03:02:25.930Z,100.00
2023-10-31T03:04:56.767Z,100.00
2023-10-31T03:07:24.778Z,100.00
2023-10-31T03:09:52.783Z,100.00
2023-10-31T03:12:20.849Z,100.00
2023-10-31T03:14:50.257Z,100.00
2023-10-31T03:17:20.472Z,100.00
2023-10-31T03:19:48.731Z,100.00
2023-10-31T03:22:16.715Z,100.00
2023-10-31T03:24:44.677Z,100.00
2023-10-31T03:27:12.667Z,100.00
2023-10-31T03:29:40.649Z,100.00
2023-10-31T03:32:11.237Z,100.00
2023-10-31T03:34:39.709Z,100.00
2023-10-31T03:37:08.660Z,100.00
2023-10-31T03:39:36.472Z,100.00
2023-10-31T03:42:04.510Z,100.00
2023-10-31T03:44:32.493Z,100.00
2023-10-31T03:47:00.452Z,100.00
2023-10-31T03:49:29.950Z,100.00
2023-10-31T03:51:57.929Z,100.00
2023-10-31T03:54:25.899Z,100.00
2023-10-31T03:56:53.865Z,100.00
2023-10-31T03:59:21.833Z,100.00
2023-10-31T04:01:49.822Z,100.00
2023-10-31T04:04:17.977Z,100.00
2023-10-31T04:06:46.670Z,100.00
2023-10-31T04:09:15.106Z,100.00
2023-10-31T04:11:44.413Z,100.00
2023-10-31T04:14:12.419Z,100.00
2023-10-31T04:16:46.907Z,100.00
2023-10-31T04:19:15.067Z,100.00
2023-10-31T04:21:43.047Z,100.00
2023-10-31T04:24:12.507Z,100.00
2023-10-31T04:26:42.572Z,100.00
2023-10-31T04:29:10.595Z,100.00
2023-10-31T04:31:43.876Z,100.00
2023-10-31T04:34:12.811Z,100.00
2023-10-31T04:36:41.038Z,100.00
2023-10-31T04:39:09.043Z,100.00
2023-10-31T04:41:38.410Z,100.00
2023-10-31T04:44:07.345Z,100.00
2023-10-31T04:46:35.950Z,100.00
2023-10-31T04:49:04.566Z,100.00
2023-10-31T04:51:35.905Z,100.00
2023-10-31T04:54:04.245Z,100.00
2023-10-31T04:56:32.798Z,100.00
2023-10-31T04:59:02.554Z,100.00
2023-10-31T05:01:30.599Z,100.00
2023-10-31T05:04:06.961Z,100.00
2023-10-31T05:06:40.650Z,100.00
2023-10-31T05:09:08.640Z,100.00
2023-10-31T05:11:37.048Z,100.00
2023-10-31T05:14:07.050Z,100.00
2023-10-31T05:16:41.720Z,100.00
2023-10-31T05:19:09.753Z,100.00
2023-10-31T05:21:37.832Z,100.00
2023-10-31T05:24:06.722Z,100.00
2023-10-31T05:26:34.478Z,100.00
2023-10-31T05:29:02.516Z,100.00
2023-10-31T05:31:31.997Z,99.79
2023-10-31T05:33:59.948Z,100.00
2023-10-31T05:36:29.186Z,99.18
2023-10-31T05:38:57.147Z,99.05
2023-10-31T05:41:25.275Z,99.28
2023-10-31T05:43:53.403Z,98.56
2023-10-31T05:46:21.613Z,97.89
2023-10-31T05:48:52.215Z,98.61
2023-10-31T05:51:21.340Z,98.88
2023-10-31T05:53:50.443Z,98.96
2023-10-31T05:56:18.987Z,98.21
2023-10-31T05:58:47.457Z,97.97
2023-10-31T06:01:15.564Z,98.57
2023-10-31T06:03:45.429Z,98.33
2023-10-31T06:06:15.039Z,98.08
2023-10-31T06:08:43.910Z,97.32
2023-10-31T06:11:13.904Z,98.08
2023-10-31T06:13:42.246Z,97.60
2023-10-31T06:16:10.595Z,98.20
2023-10-31T06:18:41.272Z,97.88
2023-10-31T06:21:10.497Z,97.98
2023-10-31T06:23:40.467Z,97.19
2023-10-31T06:26:08.631Z,97.37
2023-10-31T06:28:41.386Z,97.24
2023-10-31T06:31:14.045Z,97.72
2023-10-31T06:33:42.134Z,97.19
2023-10-31T06:36:10.960Z,97.73
2023-10-31T06:38:40.379Z,98.06
2023-10-31T06:41:08.655Z,97.32
2023-10-31T06:43:36.994Z,97.99
2023-10-31T06:46:06.569Z,98.29
2023-10-31T06:48:34.588Z,98.32
2023-10-31T06:51:02.617Z,98.46
2023-10-31T06:53:30.595Z,98.08
2023-10-31T06:56:00.044Z,98.69
2023-10-31T06:58:28.182Z,97.82
2023-10-31T07:00:56.452Z,98.11
2023-10-31T07:03:24.559Z,98.37
2023-10-31T07:05:52.631Z,98.48
2023-10-31T07:08:20.768Z,98.56
2023-10-31T07:10:48.810Z,98.96
2023-10-31T07:13:18.984Z,98.40
2023-10-31T07:15:47.836Z,98.24
2023-10-31T07:18:15.846Z,98.70
2023-10-31T07:20:43.835Z,98.41
2023-10-31T07:23:11.957Z,98.68
2023-10-31T07:25:39.940Z,98.96
2023-10-31T07:28:10.706Z,98.63
2023-10-31T07:30:40.072Z,98.30
2023-10-31T07:33:08.151Z,98.11
2023-10-31T07:35:36.149Z,98.87
2023-10-31T07:38:04.611Z,98.91
2023-10-31T07:40:32.642Z,98.87
2023-10-31T07:43:00.632Z,99.63
2023-10-31T07:45:28.714Z,98.92
2023-10-31T07:48:20.617Z,98.79
2023-10-31T07:50:48.639Z,98.61
2023-10-31T07:53:37.594Z,98.68
2023-10-31T07:56:06.316Z,98.13
2023-10-31T07:58:34.288Z,98.70
2023-10-31T08:01:02.217Z,98.64
2023-10-31T08:03:31.674Z,96.92
2023-10-31T08:06:01.530Z,97.22
2023-10-31T08:08:29.588Z,98.01
2023-10-31T08:10:58.495Z,98.03
2023-10-31T08:13:26.559Z,97.29
2023-10-31T08:15:54.555Z,96.86
2023-10-31T08:18:27.236Z,96.33
2023-10-31T08:20:56.666Z,96.93
2023-10-31T08:23:24.830Z,96.98
2023-10-31T08:25:55.854Z,96.80
2023-10-31T08:28:25.853Z,96.93
2023-10-31T08:30:53.932Z,97.57
2023-10-31T08:33:22.049Z,96.96
2023-10-31T08:35:50.672Z,96.75
2023-10-31T08:38:27.566Z,96.74
2023-10-31T08:41:06.207Z,97.14
2023-10-31T08:43:34.269Z,97.10
2023-10-31T08:46:02.374Z,97.11
2023-10-31T08:48:32.894Z,97.14
2023-10-31T08:51:01.069Z,97.40
2023-10-31T08:53:34.714Z,97.19
2023-10-31T08:56:03.364Z,97.28
2023-10-31T08:59:12.942Z,96.16
2023-10-31T09:04:58.347Z,96.78
2023-10-31T09:07:29.719Z,96.61
2023-10-31T09:09:59.394Z,96.53
2023-10-31T09:12:28.455Z,97.22
2023-10-31T09:14:57.821Z,97.29
2023-10-31T09:17:38.487Z,97.49
2023-10-31T09:20:25.121Z,96.65
2023-10-31T09:22:53.809Z,96.80
2023-10-31T09:25:28.095Z,97.61
2023-10-31T09:28:07.490Z,96.69
2023-10-31T09:30:43.175Z,96.19
2023-10-31T09:33:21.120Z,96.66
2023-10-31T09:36:13.082Z,96.48
2023-10-31T09:38:45.795Z,96.64
2023-10-31T09:41:25.860Z,96.70
2023-10-31T09:44:35.803Z,96.21
2023-10-31T09:47:06.828Z,95.98
2023-10-31T09:50:06.113Z,96.58
2023-10-31T09:52:51.339Z,95.92
2023-10-31T09:55:43.974Z,95.66
2023-10-31T09:58:34.315Z,95.71
2023-10-31T10:01:04.743Z,95.97
2023-10-31T10:03:37.225Z,95.95
2023-10-31T10:11:56.183Z,95.80
2023-10-31T10:14:56.169Z,95.85
2023-10-31T10:17:35.575Z,95.36
2023-10-31T10:20:11.627Z,95.77
2023-10-31T10:23:28.641Z,95.61
2023-10-31T10:26:38.017Z,95.59
2023-10-31T10:29:06.543Z,95.95
2023-10-31T10:31:39.720Z,95.66
2023-10-31T10:34:08.432Z,95.64
2023-10-31T10:36:36.739Z,96.43
2023-10-31T10:39:27.569Z,96.68
2023-10-31T10:42:09.883Z,96.46
2023-10-31T10:44:55.450Z,95.56
2023-10-31T10:48:07.073Z,95.04
2023-10-31T10:50:56.549Z,95.61
2023-10-31T10:54:16.825Z,96.08
2023-10-31T10:56:50.209Z,95.81
2023-10-31T10:59:25.797Z,95.87
2023-10-31T11:02:02.385Z,96.13
2023-10-31T11:04:34.061Z,97.18
2023-10-31T11:07:24.170Z,95.94
2023-10-31T11:10:08.288Z,97.07
2023-10-31T11:12:57.993Z,96.58
2023-10-31T11:15:38.917Z,96.48
2023-10-31T11:18:15.149Z,95.27
2023-10-31T11:20:45.217Z,94.91
2023-10-31T11:23:22.234Z,94.66
2023-10-31T11:25:57.313Z,95.11
2023-10-31T11:29:06.181Z,94.04
2023-10-31T11:32:19.300Z,95.62
2023-10-31T11:34:48.995Z,96.14
2023-10-31T11:37:37.033Z,96.07
2023-10-31T11:43:19.105Z,95.50
2023-10-31T11:45:50.461Z,94.38
2023-10-31T11:48:18.509Z,94.64
2023-10-31T11:50:57.567Z,94.69
2023-10-31T11:53:28.698Z,92.63
2023-10-31T11:56:00.911Z,92.56
2023-10-31T11:58:45.330Z,93.56
2023-10-31T12:01:16.927Z,93.23
2023-10-31T12:03:48.855Z,91.74
2023-10-31T12:06:21.698Z,91.85
2023-10-31T12:08:52.024Z,91.22
2023-10-31T12:11:24.444Z,90.48
2023-10-31T12:13:57.455Z,90.94
2023-10-31T12:16:27.505Z,90.15
2023-10-31T12:19:06.479Z,90.96
2023-10-31T12:21:39.946Z,89.53
2023-10-31T12:24:12.423Z,89.86
2023-10-31T12:26:43.231Z,89.43
2023-10-31T12:29:13.073Z,88.07
2023-10-31T12:31:52.264Z,88.29
2023-10-31T12:34:26.966Z,89.24
2023-10-31T12:36:56.223Z,87.81
2023-10-31T12:39:28.233Z,88.02
2023-10-31T12:41:58.059Z,88.18
2023-10-31T12:44:30.150Z,88.82
2023-10-31T12:47:01.459Z,87.35
2023-10-31T12:49:29.665Z,87.25
2023-10-31T12:51:59.257Z,86.88
2023-10-31T12:54:37.399Z,85.90
2023-10-31T12:57:09.298Z,86.83
2023-10-31T12:59:39.306Z,86.86
2023-10-31T13:02:09.771Z,88.46
2023-10-31T13:04:38.331Z,87.01
2023-10-31T13:07:08.692Z,86.29
2023-10-31T13:09:43.274Z,87.15
2023-10-31T13:12:15.119Z,86.07
2023-10-31T13:14:46.074Z,87.05
2023-10-31T13:17:16.118Z,86.68
2023-10-31T13:19:44.253Z,87.26
2023-10-31T13:22:14.468Z,87.18
2023-10-31T13:24:47.022Z,86.95
2023-10-31T13:27:17.848Z,87.08
2023-10-31T13:29:47.104Z,86.90
2023-10-31T13:32:15.136Z,86.88
2023-10-31T13:34:43.289Z,86.27
2023-10-31T13:37:13.208Z,86.22
2023-10-31T13:39:51.553Z,87.56
2023-10-31T13:42:23.317Z,86.54
2023-10-31T13:44:51.470Z,86.19
2023-10-31T13:47:21.663Z,87.04
2023-10-31T13:49:49.886Z,86.95
2023-10-31T13:52:19.762Z,86.63
2023-10-31T13:54:47.987Z,86.60
2023-10-31T13:57:17.493Z,86.78
2023-10-31T13:59:49.034Z,86.61
2023-10-31T14:02:19.323Z,86.12
2023-10-31T14:04:58.491Z,85.58
2023-10-31T14:07:44.416Z,86.46
2023-10-31T14:10:15.467Z,85.65
2023-10-31T14:12:43.520Z,86.44
2023-10-31T14:15:13.049Z,87.06
2023-10-31T14:17:41.679Z,86.05
2023-10-31T14:20:13.249Z,86.49
2023-10-31T14:22:41.292Z,86.94
2023-10-31T14:25:51.438Z,86.31
2023-10-31T14:28:24.729Z,86.16
2023-10-31T14:30:55.262Z,85.88
2023-10-31T14:33:23.384Z,86.25
2023-10-31T14:35:51.461Z,87.19
2023-10-31T14:38:19.590Z,85.80
2023-10-31T14:40:47.601Z,86.72
2023-10-31T14:43:19.373Z,86.72
2023-10-31T14:45:47.856Z,86.03
2023-10-31T14:48:17.244Z,85.28
2023-10-31T14:50:45.261Z,86.44
2023-10-31T14:53:13.390Z,86.88
2023-10-31T14:55:41.552Z,86.17
2023-10-31T14:58:12.247Z,86.39
2023-10-31T15:00:40.567Z,86.58
2023-10-31T15:03:08.762Z,86.19
2023-10-31T15:05:38.201Z,85.29
2023-10-31T15:08:11.727Z,86.59
2023-10-31T15:10:39.818Z,86.05
2023-10-31T15:13:19.833Z,87.91
2023-10-31T15:15:50.316Z,87.62
2023-10-31T15:18:21.581Z,86.59
2023-10-31T15:20:51.149Z,87.16
2023-10-31T15:23:19.328Z,86.55
2023-10-31T15:25:58.509Z,86.91
2023-10-31T15:28:34.505Z,87.63
2023-10-31T15:31:06.684Z,87.10
2023-10-31T15:33:34.699Z,87.06
2023-10-31T15:36:04.481Z,87.31
2023-10-31T15:38:32.645Z,87.16
2023-10-31T15:41:10.911Z,87.37
2023-10-31T15:43:43.206Z,87.10
2023-10-31T15:46:14.464Z,87.44
2023-10-31T15:48:43.268Z,87.20
2023-10-31T15:51:12.809Z,87.24
2023-10-31T15:53:42.043Z,86.69
2023-10-31T15:56:11.414Z,87.22
2023-10-31T15:58:41.045Z,87.18
2023-10-31T16:01:09.522Z,87.33
2023-10-31T16:03:37.927Z,87.48
2023-10-31T16:06:06.930Z,87.81
2023-10-31T16:08:36.396Z,87.56
2023-10-31T16:11:07.874Z,87.07
2023-10-31T16:13:38.642Z,86.99
2023-10-31T16:16:07.820Z,87.36
2023-10-31T16:18:35.956Z,87.39
2023-10-31T16:21:05.736Z,87.19
2023-10-31T16:23:40.857Z,87.05
2023-10-31T16:26:09.179Z,87.51
2023-10-31T16:28:38.495Z,87.28
2023-10-31T16:31:06.701Z,87.63
2023-10-31T16:33:36.595Z,87.20
2023-10-31T16:36:07.364Z,88.35
2023-10-31T16:38:41.181Z,88.23
2023-10-31T16:41:15.978Z,87.26
2023-10-31T16:43:44.182Z,86.99
2023-10-31T16:46:22.845Z,86.80
2023-10-31T16:48:50.978Z,87.27
2023-10-31T16:51:19.594Z,86.50
2023-10-31T16:53:50.130Z,87.06
2023-10-31T16:56:22.593Z,86.43
2023-10-31T16:58:50.886Z,87.22
2023-10-31T17:01:18.997Z,87.41
2023-10-31T17:03:47.153Z,87.77
2023-10-31T17:06:16.307Z,87.70
2023-10-31T17:08:58.482Z,86.56
2023-10-31T17:11:27.554Z,86.99
2023-10-31T17:14:03.069Z,87.75
2023-10-31T17:16:39.853Z,88.15
2023-10-31T17:19:09.550Z,87.45
2023-10-31T17:21:37.733Z,86.48
2023-10-31T17:24:16.072Z,87.04
2023-10-31T17:26:44.902Z,86.76
2023-10-31T17:29:12.987Z,87.40
2023-10-31T17:31:41.350Z,87.89
2023-10-31T17:34:10.801Z,87.66
2023-10-31T17:36:38.841Z,87.23
2023-10-31T17:39:10.116Z,87.58
2023-10-31T17:41:38.235Z,88.17
2023-10-31T17:44:14.745Z,88.14
2023-10-31T17:46:46.409Z,87.48
2023-10-31T17:49:14.584Z,88.19
2023-10-31T17:51:45.769Z,87.92
2023-10-31T17:54:17.348Z,88.06
2023-10-31T17:56:47.593Z,87.55
2023-10-31T17:59:15.712Z,87.93
2023-10-31T18:02:07.885Z,88.51
2023-10-31T18:04:41.629Z,88.21
2023-10-31T18:07:27.345Z,88.54
2023-10-31T18:09:57.968Z,88.21
2023-10-31T18:12:26.007Z,89.29
2023-10-31T18:14:55.912Z,89.95
2023-10-31T18:17:24.009Z,88.40
2023-10-31T18:19:57.912Z,88.50
2023-10-31T18:22:27.466Z,88.52
2023-10-31T18:25:11.451Z,88.69
2023-10-31T18:27:41.490Z,89.70
2023-10-31T18:30:12.788Z,89.87
2023-10-31T18:32:40.891Z,90.78
2023-10-31T18:35:09.859Z,90.46
2023-10-31T18:37:38.215Z,90.71
2023-10-31T18:40:11.801Z,90.96
2023-10-31T18:42:43.533Z,90.86
2023-10-31T18:45:15.724Z,91.37
2023-10-31T18:47:47.196Z,92.09
2023-10-31T18:50:17.008Z,92.79
2023-10-31T18:52:47.210Z,93.74
2023-10-31T18:55:21.274Z,93.73
2023-10-31T18:58:07.846Z,94.31
2023-10-31T19:01:04.748Z,94.75
2023-10-31T19:03:33.058Z,95.27
2023-10-31T19:06:10.426Z,96.00
2023-10-31T19:08:38.487Z,96.56
2023-10-31T19:11:15.473Z,96.89
2023-10-31T19:13:46.637Z,96.84
2023-10-31T19:16:18.601Z,97.51
2023-10-31T19:18:49.188Z,97.79
2023-10-31T19:21:19.647Z,97.97
2023-10-31T19:23:50.536Z,98.37
2023-10-31T19:26:20.417Z,97.66
2023-10-31T19:28:48.489Z,96.98
2023-10-31T19:31:16.615Z,97.15
2023-10-31T19:33:44.703Z,96.74
2023-10-31T19:36:12.788Z,97.07
2023-10-31T19:38:42.085Z,96.80
2023-10-31T19:41:12.901Z,96.42
2023-10-31T19:43:44.079Z,96.56
2023-10-31T19:46:12.134Z,95.98
2023-10-31T19:48:43.996Z,95.98
2023-10-31T19:51:14.576Z,96.46
2023-10-31T19:53:42.799Z,95.63
2023-10-31T19:56:18.347Z,95.29
2023-10-31T19:58:47.853Z,94.83
2023-10-31T20:01:16.327Z,94.95
2023-10-31T20:03:44.641Z,95.00
2023-10-31T20:06:15.751Z,95.12
2023-10-31T20:08:49.793Z,95.20
2023-10-31T20:11:19.340Z,95.25
2023-10-31T20:13:49.715Z,95.46
2023-10-31T20:16:21.096Z,95.26
2023-10-31T20:18:56.281Z,94.64
2023-10-31T20:21:24.327Z,94.70
2023-10-31T20:23:52.376Z,95.49
2023-10-31T20:26:23.187Z,95.28
2023-10-31T20:28:54.750Z,93.98
2023-10-31T20:31:24.145Z,94.77
2023-10-31T20:33:52.290Z,94.83
2023-10-31T20:36:26.302Z,94.37
2023-10-31T20:39:00.249Z,94.14
2023-10-31T20:41:28.228Z,94.52
2023-10-31T20:43:57.817Z,94.08
2023-10-31T20:46:28.802Z,94.04
2023-10-31T20:48:57.040Z,93.87
2023-10-31T20:51:32.293Z,93.88
2023-10-31T20:54:01.290Z,93.41
2023-10-31T20:56:44.534Z,93.69
2023-10-31T20:59:18.661Z,93.39
2023-10-31T21:01:49.651Z,94.00
2023-10-31T21:04:17.702Z,94.24
2023-10-31T21:06:48.866Z,93.80
2023-10-31T21:09:18.248Z,94.48
2023-10-31T21:11:46.548Z,94.90
2023-10-31T21:14:16.176Z,94.95
2023-10-31T21:16:46.990Z,94.61
2023-10-31T21:19:21.502Z,95.08
2023-10-31T21:21:53.062Z,95.18
2023-10-31T21:24:24.130Z,94.11
2023-10-31T21:26:52.164Z,94.10
2023-10-31T21:29:21.523Z,94.39
2023-10-31T21:31:51.252Z,94.02
2023-10-31T21:34:22.492Z,94.13
2023-10-31T21:36:58.404Z,94.32
2023-10-31T21:39:31.535Z,93.75
2023-10-31T21:42:06.975Z,93.81
2023-10-31T21:44:44.693Z,94.05
2023-10-31T21:47:13.000Z,94.32
2023-10-31T21:49:41.056Z,94.87
2023-10-31T21:52:11.132Z,94.42
2023-10-31T21:54:42.119Z,95.04
2023-10-31T21:57:13.726Z,95.47
2023-10-31T21:59:47.257Z,95.10
2023-10-31T22:02:15.727Z,95.22
2023-10-31T22:04:53.321Z,95.54
2023-10-31T22:07:21.402Z,95.80
2023-10-31T22:09:49.594Z,95.85
2023-10-31T22:12:19.899Z,96.28
2023-10-31T22:14:52.176Z,96.40
2023-10-31T22:17:22.543Z,97.17
2023-10-31T22:19:50.589Z,97.64
2023-10-31T22:22:21.178Z,97.45
2023-10-31T22:24:49.288Z,97.14
2023-10-31T22:27:17.401Z,97.56
2023-10-31T22:29:45.420Z,97.74
2023-10-31T22:32:18.979Z,98.01
2023-10-31T22:34:52.606Z,98.28
2023-10-31T22:37:28.213Z,98.18
2023-10-31T22:39:58.639Z,97.61
2023-10-31T22:42:26.767Z,97.62
2023-10-31T22:44:57.785Z,97.47
2023-10-31T22:47:27.419Z,97.17
2023-10-31T22:49:58.570Z,97.44
2023-10-31T22:52:26.549Z,97.42
2023-10-31T22:54:54.586Z,97.60
2023-10-31T22:57:22.573Z,97.64
2023-10-31T22:59:50.689Z,97.18
2023-10-31T23:02:20.091Z,97.32
2023-10-31T23:04:56.789Z,97.94
2023-10-31T23:07:24.969Z,96.53
2023-10-31T23:09:53.091Z,96.99
2023-10-31T23:12:22.925Z,96.76
2023-10-31T23:14:50.910Z,96.41
2023-10-31T23:17:19.129Z,95.35
2023-10-31T23:19:54.107Z,95.62
2023-10-31T23:22:24.048Z,95.47
2023-10-31T23:24:52.149Z,94.82
2023-10-31T23:27:20.344Z,93.97
2023-10-31T23:29:51.308Z,93.32
2023-10-31T23:32:21.548Z,93.52
2023-10-31T23:34:49.855Z,93.15
2023-10-31T23:37:17.996Z,92.77
2023-10-31T23:39:47.496Z,93.14
2023-10-31T23:42:17.721Z,92.07
2023-10-31T23:44:47.811Z,92.76
2023-10-31T23:47:18.360Z,91.68
2023-10-31T23:49:46.613Z,91.89
2023-10-31T23:52:15.455Z,92.17
2023-10-31T23:54:43.704Z,91.77
2023-10-31T23:57:15.823Z,91.88
2023-10-31T23:59:44.012Z,90.92
